sensor_id;sensor_type;location;lat;lon;timestamp;P1;durP1;ratioP1;P2;durP2;ratioP2
79173;SDS011;68599;49.142;9.124;2023-04-25T00:02:11;1.90;;;1.10;;
79173;SDS011;68599;49.142;9.124;2023-04-25T00:04:38;2.30;;;1.30;;
79173;SDS011;68599;49.142;9.124;2023-04-25T00:09:32;2.70;;;1.20;;
79173;SDS011;68599;49.142;9.124;2023-04-25T00:11:59;3.00;;;1.20;;
79173;SDS011;68599;49.142;9.124;2023-04-25T00:14:27;1.80;;;1.10;;
79173;SDS011;68599;49.142;9.124;2023-04-25T00:16:54;1.90;;;1.00;;
79173;SDS011;68599;49.142;9.124;2023-04-25T00:19:21;2.20;;;1.10;;
79173;SDS011;68599;49.142;9.124;2023-04-25T00:21:48;1.50;;;0.70;;
79173;SDS011;68599;49.142;9.124;2023-04-25T00:24:14;2.20;;;1.10;;
79173;SDS011;68599;49.142;9.124;2023-04-25T00:26:41;2.00;;;0.90;;
79173;SDS011;68599;49.142;9.124;2023-04-25T00:29:07;1.80;;;0.70;;
79173;SDS011;68599;49.142;9.124;2023-04-25T00:31:34;1.00;;;0.60;;
79173;SDS011;68599;49.142;9.124;2023-04-25T00:34:01;1.70;;;1.00;;
79173;SDS011;68599;49.142;9.124;2023-04-25T00:36:27;2.00;;;1.00;;
79173;SDS011;68599;49.142;9.124;2023-04-25T00:38:54;1.80;;;0.80;;
79173;SDS011;68599;49.142;9.124;2023-04-25T00:41:23;1.80;;;1.00;;
79173;SDS011;68599;49.142;9.124;2023-04-25T00:43:52;2.60;;;1.00;;
79173;SDS011;68599;49.142;9.124;2023-04-25T00:46:20;1.80;;;1.00;;
79173;SDS011;68599;49.142;9.124;2023-04-25T00:48:47;2.00;;;1.30;;
79173;SDS011;68599;49.142;9.124;2023-04-25T00:51:16;2.00;;;1.10;;
79173;SDS011;68599;49.142;9.124;2023-04-25T00:53:45;2.00;;;1.10;;
79173;SDS011;68599;49.142;9.124;2023-04-25T00:56:14;4.10;;;1.40;;
79173;SDS011;68599;49.142;9.124;2023-04-25T00:58:41;2.40;;;1.10;;
79173;SDS011;68599;49.142;9.124;2023-04-25T01:01:09;2.50;;;1.00;;
79173;SDS011;68599;49.142;9.124;2023-04-25T01:03:37;2.70;;;1.10;;
79173;SDS011;68599;49.142;9.124;2023-04-25T01:06:08;2.00;;;1.00;;
79173;SDS011;68599;49.142;9.124;2023-04-25T01:08:37;1.50;;;0.90;;
79173;SDS011;68599;49.142;9.124;2023-04-25T01:11:05;2.90;;;1.10;;
79173;SDS011;68599;49.142;9.124;2023-04-25T01:13:32;3.30;;;1.00;;
79173;SDS011;68599;49.142;9.124;2023-04-25T01:15:59;2.70;;;1.00;;
79173;SDS011;68599;49.142;9.124;2023-04-25T01:18:26;2.20;;;1.30;;
79173;SDS011;68599;49.142;9.124;2023-04-25T01:20:53;2.30;;;1.40;;
79173;SDS011;68599;49.142;9.124;2023-04-25T01:25:48;1.90;;;1.20;;
79173;SDS011;68599;49.142;9.124;2023-04-25T01:28:15;4.70;;;1.50;;
79173;SDS011;68599;49.142;9.124;2023-04-25T01:30:43;2.70;;;1.30;;
79173;SDS011;68599;49.142;9.124;2023-04-25T01:33:09;1.90;;;1.20;;
79173;SDS011;68599;49.142;9.124;2023-04-25T01:38:03;3.00;;;1.60;;
79173;SDS011;68599;49.142;9.124;2023-04-25T01:40:30;2.60;;;1.20;;
79173;SDS011;68599;49.142;9.124;2023-04-25T01:42:59;3.00;;;1.30;;
79173;SDS011;68599;49.142;9.124;2023-04-25T01:45:25;2.20;;;1.30;;
79173;SDS011;68599;49.142;9.124;2023-04-25T01:47:52;2.50;;;1.40;;
79173;SDS011;68599;49.142;9.124;2023-04-25T01:50:19;2.80;;;1.20;;
79173;SDS011;68599;49.142;9.124;2023-04-25T01:52:46;2.40;;;1.30;;
79173;SDS011;68599;49.142;9.124;2023-04-25T01:55:13;4.00;;;1.40;;
79173;SDS011;68599;49.142;9.124;2023-04-25T01:57:39;2.10;;;1.20;;
79173;SDS011;68599;49.142;9.124;2023-04-25T02:00:06;1.70;;;1.00;;
79173;SDS011;68599;49.142;9.124;2023-04-25T02:02:33;2.50;;;1.10;;
79173;SDS011;68599;49.142;9.124;2023-04-25T02:05:00;3.40;;;1.10;;
79173;SDS011;68599;49.142;9.124;2023-04-25T02:07:27;2.60;;;1.10;;
79173;SDS011;68599;49.142;9.124;2023-04-25T02:09:53;2.20;;;1.10;;
79173;SDS011;68599;49.142;9.124;2023-04-25T02:12:20;1.70;;;1.10;;
79173;SDS011;68599;49.142;9.124;2023-04-25T02:14:46;2.00;;;1.00;;
79173;SDS011;68599;49.142;9.124;2023-04-25T02:17:13;1.80;;;1.00;;
79173;SDS011;68599;49.142;9.124;2023-04-25T02:19:39;2.80;;;1.30;;
79173;SDS011;68599;49.142;9.124;2023-04-25T02:22:06;2.10;;;1.10;;
79173;SDS011;68599;49.142;9.124;2023-04-25T02:24:33;2.30;;;1.20;;
79173;SDS011;68599;49.142;9.124;2023-04-25T02:27:00;2.30;;;1.40;;
79173;SDS011;68599;49.142;9.124;2023-04-25T02:29:27;1.90;;;1.40;;
79173;SDS011;68599;49.142;9.124;2023-04-25T02:31:54;4.60;;;1.50;;
79173;SDS011;68599;49.142;9.124;2023-04-25T02:34:20;2.20;;;1.40;;
79173;SDS011;68599;49.142;9.124;2023-04-25T02:36:48;2.30;;;1.10;;
79173;SDS011;68599;49.142;9.124;2023-04-25T02:39:16;4.60;;;1.20;;
79173;SDS011;68599;49.142;9.124;2023-04-25T02:41:43;3.30;;;1.10;;
79173;SDS011;68599;49.142;9.124;2023-04-25T02:44:10;1.90;;;1.10;;
79173;SDS011;68599;49.142;9.124;2023-04-25T02:46:37;2.20;;;1.30;;
79173;SDS011;68599;49.142;9.124;2023-04-25T02:49:05;3.30;;;1.40;;
79173;SDS011;68599;49.142;9.124;2023-04-25T02:51:32;2.80;;;1.30;;
79173;SDS011;68599;49.142;9.124;2023-04-25T02:53:59;2.70;;;1.40;;
79173;SDS011;68599;49.142;9.124;2023-04-25T02:56:25;2.40;;;1.50;;
79173;SDS011;68599;49.142;9.124;2023-04-25T02:58:52;3.20;;;1.70;;
79173;SDS011;68599;49.142;9.124;2023-04-25T03:01:20;3.10;;;1.60;;
79173;SDS011;68599;49.142;9.124;2023-04-25T03:03:46;3.50;;;1.80;;
79173;SDS011;68599;49.142;9.124;2023-04-25T03:06:13;3.10;;;1.40;;
79173;SDS011;68599;49.142;9.124;2023-04-25T03:08:40;2.50;;;1.50;;
79173;SDS011;68599;49.142;9.124;2023-04-25T03:11:07;2.70;;;1.50;;
79173;SDS011;68599;49.142;9.124;2023-04-25T03:13:34;2.40;;;1.50;;
79173;SDS011;68599;49.142;9.124;2023-04-25T03:16:00;2.40;;;1.30;;
79173;SDS011;68599;49.142;9.124;2023-04-25T03:18:27;3.30;;;1.40;;
79173;SDS011;68599;49.142;9.124;2023-04-25T03:20:53;3.70;;;2.10;;
79173;SDS011;68599;49.142;9.124;2023-04-25T03:23:20;3.00;;;1.90;;
79173;SDS011;68599;49.142;9.124;2023-04-25T03:25:47;3.50;;;2.00;;
79173;SDS011;68599;49.142;9.124;2023-04-25T03:28:13;3.20;;;1.70;;
79173;SDS011;68599;49.142;9.124;2023-04-25T03:30:40;3.00;;;1.80;;
79173;SDS011;68599;49.142;9.124;2023-04-25T03:33:07;3.80;;;2.20;;
79173;SDS011;68599;49.142;9.124;2023-04-25T03:35:33;2.90;;;2.00;;
79173;SDS011;68599;49.142;9.124;2023-04-25T03:38:00;3.00;;;1.80;;
79173;SDS011;68599;49.142;9.124;2023-04-25T03:40:26;4.00;;;1.80;;
79173;SDS011;68599;49.142;9.124;2023-04-25T03:42:53;5.00;;;2.00;;
79173;SDS011;68599;49.142;9.124;2023-04-25T03:45:19;4.40;;;2.20;;
79173;SDS011;68599;49.142;9.124;2023-04-25T03:47:46;3.00;;;1.70;;
79173;SDS011;68599;49.142;9.124;2023-04-25T03:50:12;2.70;;;1.40;;
79173;SDS011;68599;49.142;9.124;2023-04-25T03:52:39;3.40;;;1.80;;
79173;SDS011;68599;49.142;9.124;2023-04-25T03:55:06;2.70;;;1.60;;
79173;SDS011;68599;49.142;9.124;2023-04-25T03:57:33;6.10;;;2.10;;
79173;SDS011;68599;49.142;9.124;2023-04-25T03:59:59;3.40;;;2.10;;
79173;SDS011;68599;49.142;9.124;2023-04-25T04:02:26;3.80;;;2.30;;
79173;SDS011;68599;49.142;9.124;2023-04-25T04:04:53;3.10;;;2.00;;
79173;SDS011;68599;49.142;9.124;2023-04-25T04:07:20;4.20;;;2.00;;
79173;SDS011;68599;49.142;9.124;2023-04-25T04:09:47;3.70;;;2.30;;
79173;SDS011;68599;49.142;9.124;2023-04-25T04:12:13;3.60;;;1.90;;
79173;SDS011;68599;49.142;9.124;2023-04-25T04:14:40;3.60;;;2.00;;
79173;SDS011;68599;49.142;9.124;2023-04-25T04:17:06;3.50;;;2.00;;
79173;SDS011;68599;49.142;9.124;2023-04-25T04:19:33;3.40;;;2.30;;
79173;SDS011;68599;49.142;9.124;2023-04-25T04:22:00;4.20;;;2.40;;
79173;SDS011;68599;49.142;9.124;2023-04-25T04:24:26;3.60;;;2.40;;
79173;SDS011;68599;49.142;9.124;2023-04-25T04:26:53;3.60;;;2.30;;
79173;SDS011;68599;49.142;9.124;2023-04-25T04:29:19;3.80;;;2.40;;
79173;SDS011;68599;49.142;9.124;2023-04-25T04:31:49;5.80;;;2.40;;
79173;SDS011;68599;49.142;9.124;2023-04-25T04:34:17;5.50;;;2.30;;
79173;SDS011;68599;49.142;9.124;2023-04-25T04:36:44;5.10;;;2.40;;
79173;SDS011;68599;49.142;9.124;2023-04-25T04:39:14;4.70;;;2.70;;
79173;SDS011;68599;49.142;9.124;2023-04-25T04:41:41;4.50;;;2.30;;
79173;SDS011;68599;49.142;9.124;2023-04-25T04:44:09;4.20;;;2.40;;
79173;SDS011;68599;49.142;9.124;2023-04-25T04:46:36;5.50;;;2.80;;
79173;SDS011;68599;49.142;9.124;2023-04-25T04:49:09;4.30;;;2.60;;
79173;SDS011;68599;49.142;9.124;2023-04-25T04:51:36;4.30;;;2.20;;
79173;SDS011;68599;49.142;9.124;2023-04-25T04:54:03;4.20;;;2.50;;
79173;SDS011;68599;49.142;9.124;2023-04-25T04:56:30;4.00;;;2.20;;
79173;SDS011;68599;49.142;9.124;2023-04-25T04:58:57;4.90;;;2.70;;
79173;SDS011;68599;49.142;9.124;2023-04-25T05:01:24;4.40;;;2.80;;
79173;SDS011;68599;49.142;9.124;2023-04-25T05:03:52;4.90;;;2.70;;
79173;SDS011;68599;49.142;9.124;2023-04-25T05:06:20;5.50;;;3.20;;
79173;SDS011;68599;49.142;9.124;2023-04-25T05:08:46;5.00;;;2.70;;
79173;SDS011;68599;49.142;9.124;2023-04-25T05:11:13;5.60;;;2.80;;
79173;SDS011;68599;49.142;9.124;2023-04-25T05:13:40;7.30;;;3.70;;
79173;SDS011;68599;49.142;9.124;2023-04-25T05:16:06;4.80;;;2.90;;
79173;SDS011;68599;49.142;9.124;2023-04-25T05:18:33;4.80;;;2.50;;
79173;SDS011;68599;49.142;9.124;2023-04-25T05:20:59;4.90;;;2.90;;
79173;SDS011;68599;49.142;9.124;2023-04-25T05:23:26;5.30;;;3.10;;
79173;SDS011;68599;49.142;9.124;2023-04-25T05:25:54;5.30;;;3.00;;
79173;SDS011;68599;49.142;9.124;2023-04-25T05:28:20;5.00;;;3.00;;
79173;SDS011;68599;49.142;9.124;2023-04-25T05:30:47;5.60;;;3.00;;
79173;SDS011;68599;49.142;9.124;2023-04-25T05:33:14;4.90;;;2.70;;
79173;SDS011;68599;49.142;9.124;2023-04-25T05:35:41;5.40;;;2.80;;
79173;SDS011;68599;49.142;9.124;2023-04-25T05:38:08;6.00;;;2.80;;
79173;SDS011;68599;49.142;9.124;2023-04-25T05:40:35;4.50;;;2.50;;
79173;SDS011;68599;49.142;9.124;2023-04-25T05:43:01;4.10;;;2.50;;
79173;SDS011;68599;49.142;9.124;2023-04-25T05:45:28;4.90;;;2.50;;
79173;SDS011;68599;49.142;9.124;2023-04-25T05:47:55;4.40;;;2.50;;
79173;SDS011;68599;49.142;9.124;2023-04-25T05:50:22;4.90;;;2.90;;
79173;SDS011;68599;49.142;9.124;2023-04-25T05:52:48;4.30;;;2.80;;
79173;SDS011;68599;49.142;9.124;2023-04-25T05:55:15;4.60;;;2.70;;
79173;SDS011;68599;49.142;9.124;2023-04-25T05:57:41;4.10;;;2.50;;
79173;SDS011;68599;49.142;9.124;2023-04-25T06:00:12;3.90;;;2.40;;
79173;SDS011;68599;49.142;9.124;2023-04-25T06:02:41;6.70;;;3.00;;
79173;SDS011;68599;49.142;9.124;2023-04-25T06:07:35;4.80;;;2.70;;
79173;SDS011;68599;49.142;9.124;2023-04-25T06:10:02;3.50;;;2.30;;
79173;SDS011;68599;49.142;9.124;2023-04-25T06:12:32;4.00;;;2.50;;
79173;SDS011;68599;49.142;9.124;2023-04-25T06:15:00;3.90;;;2.50;;
79173;SDS011;68599;49.142;9.124;2023-04-25T06:17:27;5.00;;;2.50;;
79173;SDS011;68599;49.142;9.124;2023-04-25T06:19:54;3.50;;;2.10;;
79173;SDS011;68599;49.142;9.124;2023-04-25T06:22:20;4.60;;;2.40;;
79173;SDS011;68599;49.142;9.124;2023-04-25T06:24:47;4.10;;;2.40;;
79173;SDS011;68599;49.142;9.124;2023-04-25T06:27:14;5.20;;;2.30;;
79173;SDS011;68599;49.142;9.124;2023-04-25T06:29:42;5.50;;;2.90;;
79173;SDS011;68599;49.142;9.124;2023-04-25T06:32:08;3.50;;;2.40;;
79173;SDS011;68599;49.142;9.124;2023-04-25T06:34:35;4.80;;;2.50;;
79173;SDS011;68599;49.142;9.124;2023-04-25T06:37:02;3.40;;;2.30;;
79173;SDS011;68599;49.142;9.124;2023-04-25T06:39:28;4.20;;;2.40;;
79173;SDS011;68599;49.142;9.124;2023-04-25T06:41:55;3.50;;;2.30;;
79173;SDS011;68599;49.142;9.124;2023-04-25T06:44:22;4.40;;;2.50;;
79173;SDS011;68599;49.142;9.124;2023-04-25T06:46:50;5.00;;;2.80;;
79173;SDS011;68599;49.142;9.124;2023-04-25T06:49:16;5.20;;;2.30;;
79173;SDS011;68599;49.142;9.124;2023-04-25T06:51:43;3.10;;;2.20;;
79173;SDS011;68599;49.142;9.124;2023-04-25T06:54:10;4.60;;;2.70;;
79173;SDS011;68599;49.142;9.124;2023-04-25T06:56:36;4.00;;;2.20;;
79173;SDS011;68599;49.142;9.124;2023-04-25T06:59:03;4.90;;;2.30;;
79173;SDS011;68599;49.142;9.124;2023-04-25T07:01:29;4.40;;;2.70;;
79173;SDS011;68599;49.142;9.124;2023-04-25T07:03:56;3.60;;;2.10;;
79173;SDS011;68599;49.142;9.124;2023-04-25T07:06:23;4.90;;;2.30;;
79173;SDS011;68599;49.142;9.124;2023-04-25T07:08:52;3.70;;;2.50;;
79173;SDS011;68599;49.142;9.124;2023-04-25T07:11:18;4.40;;;2.60;;
79173;SDS011;68599;49.142;9.124;2023-04-25T07:13:45;4.20;;;2.40;;
79173;SDS011;68599;49.142;9.124;2023-04-25T07:16:12;4.00;;;2.40;;
79173;SDS011;68599;49.142;9.124;2023-04-25T07:18:38;4.10;;;2.60;;
79173;SDS011;68599;49.142;9.124;2023-04-25T07:21:05;4.10;;;2.70;;
79173;SDS011;68599;49.142;9.124;2023-04-25T07:23:31;4.30;;;2.60;;
79173;SDS011;68599;49.142;9.124;2023-04-25T07:25:58;4.60;;;3.00;;
79173;SDS011;68599;49.142;9.124;2023-04-25T07:28:24;3.90;;;2.60;;
79173;SDS011;68599;49.142;9.124;2023-04-25T07:30:51;4.50;;;3.00;;
79173;SDS011;68599;49.142;9.124;2023-04-25T07:33:17;4.60;;;3.10;;
79173;SDS011;68599;49.142;9.124;2023-04-25T07:35:46;4.00;;;2.80;;
79173;SDS011;68599;49.142;9.124;2023-04-25T07:38:13;4.00;;;2.80;;
79173;SDS011;68599;49.142;9.124;2023-04-25T07:40:40;3.70;;;2.80;;
79173;SDS011;68599;49.142;9.124;2023-04-25T07:43:06;5.00;;;3.00;;
79173;SDS011;68599;49.142;9.124;2023-04-25T07:45:33;4.30;;;2.30;;
79173;SDS011;68599;49.142;9.124;2023-04-25T07:47:59;4.40;;;2.80;;
79173;SDS011;68599;49.142;9.124;2023-04-25T07:50:26;4.90;;;3.10;;
79173;SDS011;68599;49.142;9.124;2023-04-25T07:52:53;4.50;;;3.30;;
79173;SDS011;68599;49.142;9.124;2023-04-25T07:55:19;4.20;;;2.90;;
79173;SDS011;68599;49.142;9.124;2023-04-25T07:57:46;4.20;;;2.80;;
79173;SDS011;68599;49.142;9.124;2023-04-25T08:00:12;4.60;;;3.10;;
79173;SDS011;68599;49.142;9.124;2023-04-25T08:02:41;7.00;;;3.30;;
79173;SDS011;68599;49.142;9.124;2023-04-25T08:05:07;4.50;;;2.70;;
79173;SDS011;68599;49.142;9.124;2023-04-25T08:07:38;6.10;;;3.60;;
79173;SDS011;68599;49.142;9.124;2023-04-25T08:10:05;5.10;;;2.80;;
79173;SDS011;68599;49.142;9.124;2023-04-25T08:12:33;4.50;;;3.00;;
79173;SDS011;68599;49.142;9.124;2023-04-25T08:14:59;6.30;;;3.30;;
79173;SDS011;68599;49.142;9.124;2023-04-25T08:17:26;4.80;;;3.20;;
79173;SDS011;68599;49.142;9.124;2023-04-25T08:19:53;5.70;;;3.60;;
79173;SDS011;68599;49.142;9.124;2023-04-25T08:22:20;5.30;;;3.00;;
79173;SDS011;68599;49.142;9.124;2023-04-25T08:24:46;4.60;;;3.50;;
79173;SDS011;68599;49.142;9.124;2023-04-25T08:27:13;5.80;;;3.90;;
79173;SDS011;68599;49.142;9.124;2023-04-25T08:29:41;4.60;;;3.60;;
79173;SDS011;68599;49.142;9.124;2023-04-25T08:32:08;4.80;;;3.10;;
79173;SDS011;68599;49.142;9.124;2023-04-25T08:34:34;5.70;;;3.40;;
79173;SDS011;68599;49.142;9.124;2023-04-25T08:37:02;4.90;;;3.20;;
79173;SDS011;68599;49.142;9.124;2023-04-25T08:39:30;4.20;;;3.10;;
79173;SDS011;68599;49.142;9.124;2023-04-25T08:41:57;4.40;;;2.90;;
79173;SDS011;68599;49.142;9.124;2023-04-25T08:44:23;4.30;;;3.00;;
79173;SDS011;68599;49.142;9.124;2023-04-25T08:46:51;4.40;;;2.90;;
79173;SDS011;68599;49.142;9.124;2023-04-25T08:51:45;5.10;;;2.70;;
79173;SDS011;68599;49.142;9.124;2023-04-25T08:54:13;4.20;;;2.80;;
79173;SDS011;68599;49.142;9.124;2023-04-25T08:57:03;4.90;;;3.20;;
79173;SDS011;68599;49.142;9.124;2023-04-25T08:59:31;5.20;;;3.10;;
79173;SDS011;68599;49.142;9.124;2023-04-25T09:01:58;5.70;;;3.60;;
79173;SDS011;68599;49.142;9.124;2023-04-25T09:04:27;4.70;;;3.00;;
79173;SDS011;68599;49.142;9.124;2023-04-25T09:06:57;5.70;;;3.00;;
79173;SDS011;68599;49.142;9.124;2023-04-25T09:09:24;5.00;;;3.10;;
79173;SDS011;68599;49.142;9.124;2023-04-25T09:11:51;5.90;;;3.20;;
79173;SDS011;68599;49.142;9.124;2023-04-25T09:14:21;4.40;;;2.90;;
79173;SDS011;68599;49.142;9.124;2023-04-25T09:16:56;5.70;;;3.70;;
79173;SDS011;68599;49.142;9.124;2023-04-25T09:19:24;5.40;;;3.00;;
79173;SDS011;68599;49.142;9.124;2023-04-25T09:22:06;5.90;;;3.90;;
79173;SDS011;68599;49.142;9.124;2023-04-25T09:24:34;5.50;;;3.50;;
79173;SDS011;68599;49.142;9.124;2023-04-25T09:29:34;5.30;;;3.40;;
79173;SDS011;68599;49.142;9.124;2023-04-25T09:34:41;5.10;;;2.70;;
79173;SDS011;68599;49.142;9.124;2023-04-25T09:37:09;5.70;;;2.90;;
79173;SDS011;68599;49.142;9.124;2023-04-25T09:39:38;4.30;;;2.40;;
79173;SDS011;68599;49.142;9.124;2023-04-25T09:44:31;6.50;;;2.80;;
79173;SDS011;68599;49.142;9.124;2023-04-25T09:46:58;5.00;;;2.60;;
79173;SDS011;68599;49.142;9.124;2023-04-25T09:49:25;3.50;;;1.90;;
79173;SDS011;68599;49.142;9.124;2023-04-25T09:51:57;3.00;;;2.00;;
79173;SDS011;68599;49.142;9.124;2023-04-25T09:54:24;4.90;;;2.20;;
79173;SDS011;68599;49.142;9.124;2023-04-25T09:59:20;3.80;;;1.80;;
79173;SDS011;68599;49.142;9.124;2023-04-25T10:01:49;2.30;;;1.60;;
79173;SDS011;68599;49.142;9.124;2023-04-25T10:04:20;2.50;;;1.50;;
79173;SDS011;68599;49.142;9.124;2023-04-25T10:06:51;2.10;;;1.20;;
79173;SDS011;68599;49.142;9.124;2023-04-25T10:09:20;2.50;;;1.60;;
79173;SDS011;68599;49.142;9.124;2023-04-25T10:11:47;2.60;;;1.50;;
79173;SDS011;68599;49.142;9.124;2023-04-25T10:14:14;2.20;;;1.30;;
79173;SDS011;68599;49.142;9.124;2023-04-25T10:19:11;3.40;;;1.70;;
79173;SDS011;68599;49.142;9.124;2023-04-25T10:21:40;3.30;;;1.70;;
79173;SDS011;68599;49.142;9.124;2023-04-25T10:24:14;3.50;;;2.00;;
79173;SDS011;68599;49.142;9.124;2023-04-25T10:26:41;5.20;;;2.30;;
79173;SDS011;68599;49.142;9.124;2023-04-25T10:29:08;4.10;;;1.70;;
79173;SDS011;68599;49.142;9.124;2023-04-25T10:31:44;4.40;;;2.00;;
79173;SDS011;68599;49.142;9.124;2023-04-25T10:34:12;5.40;;;2.60;;
79173;SDS011;68599;49.142;9.124;2023-04-25T10:36:38;3.40;;;2.20;;
79173;SDS011;68599;49.142;9.124;2023-04-25T10:41:55;3.80;;;1.90;;
79173;SDS011;68599;49.142;9.124;2023-04-25T10:44:25;4.20;;;2.50;;
79173;SDS011;68599;49.142;9.124;2023-04-25T10:46:54;4.80;;;2.30;;
79173;SDS011;68599;49.142;9.124;2023-04-25T10:49:28;4.60;;;2.80;;
79173;SDS011;68599;49.142;9.124;2023-04-25T10:54:46;5.70;;;3.70;;
79173;SDS011;68599;49.142;9.124;2023-04-25T10:57:26;6.50;;;3.70;;
79173;SDS011;68599;49.142;9.124;2023-04-25T11:00:06;5.00;;;3.00;;
79173;SDS011;68599;49.142;9.124;2023-04-25T11:02:38;5.30;;;3.30;;
79173;SDS011;68599;49.142;9.124;2023-04-25T11:05:08;5.40;;;3.40;;
79173;SDS011;68599;49.142;9.124;2023-04-25T11:07:44;4.60;;;2.90;;
79173;SDS011;68599;49.142;9.124;2023-04-25T11:10:36;6.60;;;3.00;;
79173;SDS011;68599;49.142;9.124;2023-04-25T11:13:06;4.60;;;3.10;;
79173;SDS011;68599;49.142;9.124;2023-04-25T11:15:32;6.30;;;3.10;;
79173;SDS011;68599;49.142;9.124;2023-04-25T11:17:59;4.90;;;3.00;;
79173;SDS011;68599;49.142;9.124;2023-04-25T11:20:26;5.00;;;3.20;;
79173;SDS011;68599;49.142;9.124;2023-04-25T11:22:57;6.00;;;4.30;;
79173;SDS011;68599;49.142;9.124;2023-04-25T11:25:25;5.30;;;2.80;;
79173;SDS011;68599;49.142;9.124;2023-04-25T11:27:52;4.70;;;3.20;;
79173;SDS011;68599;49.142;9.124;2023-04-25T11:30:20;6.70;;;2.60;;
79173;SDS011;68599;49.142;9.124;2023-04-25T11:32:47;6.30;;;3.00;;
79173;SDS011;68599;49.142;9.124;2023-04-25T11:35:14;6.90;;;2.80;;
79173;SDS011;68599;49.142;9.124;2023-04-25T11:37:42;5.60;;;2.80;;
79173;SDS011;68599;49.142;9.124;2023-04-25T11:40:10;4.90;;;2.80;;
79173;SDS011;68599;49.142;9.124;2023-04-25T11:42:44;8.30;;;3.00;;
79173;SDS011;68599;49.142;9.124;2023-04-25T11:45:12;5.40;;;2.70;;
79173;SDS011;68599;49.142;9.124;2023-04-25T11:47:39;6.50;;;3.20;;
79173;SDS011;68599;49.142;9.124;2023-04-25T11:50:07;5.70;;;2.70;;
79173;SDS011;68599;49.142;9.124;2023-04-25T11:52:35;6.10;;;3.10;;
79173;SDS011;68599;49.142;9.124;2023-04-25T11:55:09;5.70;;;2.20;;
79173;SDS011;68599;49.142;9.124;2023-04-25T11:57:38;9.50;;;3.10;;
79173;SDS011;68599;49.142;9.124;2023-04-25T12:02:44;7.60;;;3.10;;
79173;SDS011;68599;49.142;9.124;2023-04-25T12:05:14;7.80;;;3.10;;
79173;SDS011;68599;49.142;9.124;2023-04-25T12:07:46;7.40;;;2.90;;
79173;SDS011;68599;49.142;9.124;2023-04-25T12:10:14;5.30;;;2.20;;
79173;SDS011;68599;49.142;9.124;2023-04-25T12:12:43;7.20;;;2.70;;
79173;SDS011;68599;49.142;9.124;2023-04-25T12:15:12;5.10;;;2.10;;
79173;SDS011;68599;49.142;9.124;2023-04-25T12:17:42;7.00;;;2.40;;
79173;SDS011;68599;49.142;9.124;2023-04-25T12:20:12;5.50;;;2.20;;
79173;SDS011;68599;49.142;9.124;2023-04-25T12:22:49;6.10;;;2.40;;
79173;SDS011;68599;49.142;9.124;2023-04-25T12:33:25;4.00;;;2.10;;
79173;SDS011;68599;49.142;9.124;2023-04-25T12:35:54;4.30;;;2.00;;
79173;SDS011;68599;49.142;9.124;2023-04-25T12:38:21;3.80;;;2.10;;
79173;SDS011;68599;49.142;9.124;2023-04-25T12:40:48;4.30;;;2.40;;
79173;SDS011;68599;49.142;9.124;2023-04-25T12:43:15;4.50;;;2.40;;
79173;SDS011;68599;49.142;9.124;2023-04-25T12:45:41;5.80;;;2.50;;
79173;SDS011;68599;49.142;9.124;2023-04-25T12:48:08;4.70;;;2.60;;
79173;SDS011;68599;49.142;9.124;2023-04-25T12:50:34;7.60;;;2.70;;
79173;SDS011;68599;49.142;9.124;2023-04-25T12:53:01;6.10;;;2.40;;
79173;SDS011;68599;49.142;9.124;2023-04-25T12:55:27;4.90;;;2.50;;
79173;SDS011;68599;49.142;9.124;2023-04-25T12:57:54;6.80;;;2.50;;
79173;SDS011;68599;49.142;9.124;2023-04-25T13:00:20;5.20;;;2.60;;
79173;SDS011;68599;49.142;9.124;2023-04-25T13:02:47;6.20;;;3.10;;
79173;SDS011;68599;49.142;9.124;2023-04-25T13:05:14;3.20;;;2.10;;
79173;SDS011;68599;49.142;9.124;2023-04-25T13:07:40;4.50;;;2.50;;
79173;SDS011;68599;49.142;9.124;2023-04-25T13:10:07;6.40;;;2.80;;
79173;SDS011;68599;49.142;9.124;2023-04-25T13:15:01;4.20;;;2.60;;
79173;SDS011;68599;49.142;9.124;2023-04-25T13:17:27;6.80;;;3.30;;
79173;SDS011;68599;49.142;9.124;2023-04-25T13:19:54;4.30;;;2.40;;
79173;SDS011;68599;49.142;9.124;2023-04-25T13:22:20;5.60;;;2.90;;
79173;SDS011;68599;49.142;9.124;2023-04-25T13:24:47;6.30;;;2.70;;
79173;SDS011;68599;49.142;9.124;2023-04-25T13:27:13;5.20;;;2.10;;
79173;SDS011;68599;49.142;9.124;2023-04-25T13:29:40;4.80;;;2.60;;
79173;SDS011;68599;49.142;9.124;2023-04-25T13:32:08;4.40;;;2.50;;
79173;SDS011;68599;49.142;9.124;2023-04-25T13:34:35;3.90;;;2.20;;
79173;SDS011;68599;49.142;9.124;2023-04-25T13:37:02;2.90;;;2.00;;
79173;SDS011;68599;49.142;9.124;2023-04-25T13:39:28;2.40;;;1.50;;
79173;SDS011;68599;49.142;9.124;2023-04-25T13:41:55;5.40;;;2.10;;
79173;SDS011;68599;49.142;9.124;2023-04-25T13:44:22;2.30;;;1.60;;
79173;SDS011;68599;49.142;9.124;2023-04-25T13:46:48;5.60;;;2.10;;
79173;SDS011;68599;49.142;9.124;2023-04-25T13:49:15;2.50;;;1.90;;
79173;SDS011;68599;49.142;9.124;2023-04-25T13:51:42;3.30;;;1.50;;
79173;SDS011;68599;49.142;9.124;2023-04-25T13:54:09;2.90;;;1.70;;
79173;SDS011;68599;49.142;9.124;2023-04-25T13:56:35;2.80;;;1.70;;
79173;SDS011;68599;49.142;9.124;2023-04-25T13:59:02;2.20;;;1.40;;
79173;SDS011;68599;49.142;9.124;2023-04-25T14:01:29;3.60;;;1.70;;
79173;SDS011;68599;49.142;9.124;2023-04-25T14:03:57;3.00;;;1.60;;
79173;SDS011;68599;49.142;9.124;2023-04-25T14:06:24;2.20;;;1.20;;
79173;SDS011;68599;49.142;9.124;2023-04-25T14:08:51;2.50;;;1.50;;
79173;SDS011;68599;49.142;9.124;2023-04-25T14:11:18;4.80;;;2.00;;
79173;SDS011;68599;49.142;9.124;2023-04-25T14:13:45;4.10;;;2.00;;
79173;SDS011;68599;49.142;9.124;2023-04-25T14:18:38;3.90;;;2.10;;
79173;SDS011;68599;49.142;9.124;2023-04-25T14:21:04;3.60;;;2.00;;
79173;SDS011;68599;49.142;9.124;2023-04-25T14:23:31;4.20;;;1.60;;
79173;SDS011;68599;49.142;9.124;2023-04-25T14:25:57;3.60;;;2.10;;
79173;SDS011;68599;49.142;9.124;2023-04-25T14:28:24;3.20;;;2.00;;
79173;SDS011;68599;49.142;9.124;2023-04-25T14:30:50;6.80;;;2.40;;
79173;SDS011;68599;49.142;9.124;2023-04-25T14:33:17;3.70;;;2.10;;
79173;SDS011;68599;49.142;9.124;2023-04-25T14:35:44;3.00;;;2.00;;
79173;SDS011;68599;49.142;9.124;2023-04-25T14:38:10;3.30;;;1.70;;
79173;SDS011;68599;49.142;9.124;2023-04-25T14:40:37;2.60;;;1.50;;
79173;SDS011;68599;49.142;9.124;2023-04-25T14:43:04;2.60;;;1.50;;
79173;SDS011;68599;49.142;9.124;2023-04-25T14:45:31;3.90;;;1.60;;
79173;SDS011;68599;49.142;9.124;2023-04-25T14:47:57;2.40;;;1.50;;
79173;SDS011;68599;49.142;9.124;2023-04-25T14:50:24;2.30;;;1.60;;
79173;SDS011;68599;49.142;9.124;2023-04-25T14:52:50;2.90;;;2.00;;
79173;SDS011;68599;49.142;9.124;2023-04-25T14:55:18;4.50;;;2.00;;
79173;SDS011;68599;49.142;9.124;2023-04-25T14:57:45;4.10;;;2.10;;
79173;SDS011;68599;49.142;9.124;2023-04-25T15:00:12;3.60;;;2.00;;
79173;SDS011;68599;49.142;9.124;2023-04-25T15:02:42;5.50;;;2.20;;
79173;SDS011;68599;49.142;9.124;2023-04-25T15:05:09;6.70;;;2.50;;
79173;SDS011;68599;49.142;9.124;2023-04-25T15:07:36;4.20;;;2.10;;
79173;SDS011;68599;49.142;9.124;2023-04-25T15:10:03;3.50;;;2.10;;
79173;SDS011;68599;49.142;9.124;2023-04-25T15:12:29;5.70;;;2.40;;
79173;SDS011;68599;49.142;9.124;2023-04-25T15:14:56;3.10;;;2.20;;
79173;SDS011;68599;49.142;9.124;2023-04-25T15:17:23;4.50;;;1.80;;
79173;SDS011;68599;49.142;9.124;2023-04-25T15:19:49;3.10;;;1.80;;
79173;SDS011;68599;49.142;9.124;2023-04-25T15:22:16;5.30;;;2.10;;
79173;SDS011;68599;49.142;9.124;2023-04-25T15:24:42;3.90;;;1.70;;
79173;SDS011;68599;49.142;9.124;2023-04-25T15:27:09;4.30;;;1.70;;
79173;SDS011;68599;49.142;9.124;2023-04-25T15:29:40;3.50;;;2.10;;
79173;SDS011;68599;49.142;9.124;2023-04-25T15:32:08;3.50;;;1.70;;
79173;SDS011;68599;49.142;9.124;2023-04-25T15:34:35;3.70;;;1.90;;
79173;SDS011;68599;49.142;9.124;2023-04-25T15:37:03;5.20;;;1.70;;